Time;durP1;ratioP1;P1;durP2;ratioP2;P2;SDS_P1;SDS_P2;PMS_P1;PMS_P2;Temp;Humidity;BMP_temperature;BMP_pressure;BME280_temperature;BME280_humidity;BME280_pressure;Samples;Min_cycle;Max_cycle;Signal;HPM_P1;HPM_P2
2021/03/12 00:00:43;;;;;;;;;;;;;;;-3.29;56.52;99587.47;1781194;80;20139;-69
2021/03/12 00:03:12;;;;;;;;;;;;;;;-3.26;56.39;99607.19;1778778;80;20186;-69
2021/03/12 00:05:45;;;;;;;;;;;;;;;-3.27;56.24;99571.86;1777972;80;20159;-69
2021/03/12 00:08:12;;;;;;;;;;;;;;;-3.28;56.22;99567.61;1783565;80;20143;-69
2021/03/12 00:10:42;;;;;;;;;;;;;;;-3.28;56.17;99561.97;1787928;80;20127;-69
2021/03/12 00:13:09;;;;;;;;;;;;;;;-3.28;56.26;99555.51;1788668;80;20135;-69
2021/03/12 00:15:37;;;;;;;;;;;;;;;-3.28;56.24;99585.72;1775944;80;20300;-69
2021/03/12 00:18:06;;;;;;;;;;;;;;;-3.31;56.04;99558.25;1784813;80;20434;-69
2021/03/12 00:20:35;;;;;;;;;;;;;;;-3.32;56.06;99554.80;1774225;80;20135;-69
2021/03/12 00:23:03;;;;;;;;;;;;;;;-3.34;55.96;99548.84;1778116;80;20161;-69
2021/03/12 00:25:37;;;;;;;;;;;;;;;-3.33;55.97;99545.37;1750255;79;20144;-69
2021/03/12 00:28:06;;;;;;;;;;;;;;;-3.33;56.01;99556.14;1774934;80;20501;-69
2021/03/12 00:30:33;;;;;;;;;;;;;;;-3.32;55.66;99553.50;1752855;80;20151;-69
2021/03/12 00:33:01;;;;;;;;;;;;;;;-3.33;55.71;99522.09;1785639;80;20426;-69
2021/03/12 00:35:28;;;;;;;;;;;;;;;-3.32;55.85;99541.86;1788096;80;20183;-69
2021/03/12 00:37:57;;;;;;;;;;;;;;;-3.32;55.75;99537.98;1786179;80;20147;-68
2021/03/12 00:40:26;;;;;;;;;;;;;;;-3.32;55.88;99539.28;1777857;80;20155;-69
2021/03/12 00:42:54;;;;;;;;;;;;;;;-3.32;55.79;99522.47;1775055;80;20135;-69
2021/03/12 00:45:25;;;;;;;;;;;;;;;-3.32;55.95;99536.69;1778300;80;20242;-70
2021/03/12 00:47:53;;;;;;;;;;;;;;;-3.33;55.78;99563.47;1776178;80;20139;-70
2021/03/12 00:50:22;;;;;;;;;;;;;;;-3.34;55.92;99508.76;1785150;80;20127;-70
2021/03/12 00:52:51;;;;;;;;;;;;;;;-3.33;56.03;99537.61;1788081;80;20166;-70
2021/03/12 00:55:18;;;;;;;;;;;;;;;-3.33;55.80;99503.13;1754979;80;20253;-70
2021/03/12 00:57:48;;;;;;;;;;;;;;;-3.34;55.77;99496.29;1775416;80;20150;-69
2021/03/12 01:00:19;;;;;;;;;;;;;;;-3.35;55.78;99505.80;1777793;80;20243;-69
2021/03/12 01:02:46;;;;;;;;;;;;;;;-3.34;55.83;99506.17;1788332;80;20225;-69
2021/03/12 01:05:15;;;;;;;;;;;;;;;-3.32;55.72;99489.30;1774993;80;20127;-69
2021/03/12 01:07:43;;;;;;;;;;;;;;;-3.33;55.80;99475.97;1775557;80;20258;-69
2021/03/12 01:10:14;;;;;;;;;;;;;;;-3.33;55.87;99469.08;1729602;80;20155;-69
2021/03/12 01:12:41;;;;;;;;;;;;;;;-3.33;55.71;99452.27;1775531;80;20443;-69
2021/03/12 01:15:11;;;;;;;;;;;;;;;-3.30;55.65;99444.81;1777904;80;20139;-69
2021/03/12 01:17:39;;;;;;;;;;;;;;;-3.31;55.60;99444.45;1749691;80;20262;-70
2021/03/12 01:20:09;;;;;;;;;;;;;;;-3.30;55.52;99456.91;1776093;80;20406;-70
2021/03/12 01:22:37;;;;;;;;;;;;;;;-3.35;55.56;99437.70;1775846;80;20398;-69
2021/03/12 01:25:10;;;;;;;;;;;;;;;-3.37;55.48;99453.73;1778128;80;20151;-69
2021/03/12 01:27:39;;;;;;;;;;;;;;;-3.37;55.64;99438.22;1781951;80;20147;-70
2021/03/12 01:30:15;;;;;;;;;;;;;;;-3.37;55.63;99450.69;1757878;80;20214;-70
2021/03/12 01:32:42;;;;;;;;;;;;;;;-3.35;55.58;99464.86;1786381;80;20135;-70
2021/03/12 01:35:11;;;;;;;;;;;;;;;-3.38;55.57;99460.66;1751144;80;20155;-70
2021/03/12 01:37:38;;;;;;;;;;;;;;;-3.38;55.54;99475.34;1778736;80;20166;-69
2021/03/12 01:40:07;;;;;;;;;;;;;;;-3.40;55.47;99472.83;1772896;80;20206;-70
2021/03/12 01:42:38;;;;;;;;;;;;;;;-3.42;55.58;99451.36;1773258;80;20163;-69
2021/03/12 01:45:09;;;;;;;;;;;;;;;-3.45;55.69;99487.69;1775543;80;20498;-69
2021/03/12 01:47:36;;;;;;;;;;;;;;;-3.47;55.84;99494.67;1755071;80;20267;-69
2021/03/12 01:50:05;;;;;;;;;;;;;;;-3.49;55.89;99460.28;1778902;80;20170;-70
2021/03/12 01:52:33;;;;;;;;;;;;;;;-3.51;55.95;99434.95;1778755;80;20119;-70
2021/03/12 01:55:01;;;;;;;;;;;;;;;-3.52;55.94;99439.28;1753292;80;20498;-69
2021/03/12 01:57:30;;;;;;;;;;;;;;;-3.53;56.07;99449.69;1734341;80;20145;-70
2021/03/12 01:59:59;;;;;;;;;;;;;;;-3.53;55.99;99427.25;1774552;80;20139;-71
2021/03/12 02:02:29;;;;;;;;;;;;;;;-3.53;56.11;99420.78;1777781;80;20526;-70
2021/03/12 02:04:58;;;;;;;;;;;;;;;-3.53;56.28;99419.95;1775474;80;20163;-70
2021/03/12 02:07:26;;;;;;;;;;;;;;;-3.52;56.32;99407.40;1785400;80;20154;-69
2021/03/12 02:09:55;;;;;;;;;;;;;;;-3.52;56.38;99402.23;1779525;80;20135;-70
2021/03/12 02:12:32;;;;;;;;;;;;;;;-3.52;56.30;99413.86;1782026;80;20159;-69
2021/03/12 02:15:15;;;;;;;;;;;;;;;-3.54;56.36;99428.14;1753217;81;20262;-69
2021/03/12 02:18:05;;;;;;;;;;;;;;;-3.56;56.72;99392.93;1775238;80;20135;-69
2021/03/12 02:20:44;;;;;;;;;;;;;;;-3.57;56.78;99393.86;1779653;80;20135;-69
2021/03/12 02:23:20;;;;;;;;;;;;;;;-3.58;56.70;99407.67;1788050;80;20131;-70
2021/03/12 02:25:55;;;;;;;;;;;;;;;-3.59;56.62;99411.14;1793328;80;20473;-69
2021/03/12 02:28:22;;;;;;;;;;;;;;;-3.61;56.70;99393.57;1775888;80;20253;-70
2021/03/12 02:30:50;;;;;;;;;;;;;;;-3.63;56.97;99378.13;1755552;80;20167;-69
2021/03/12 02:33:22;;;;;;;;;;;;;;;-3.65;56.91;99364.42;1775998;80;20158;-69
2021/03/12 02:35:53;;;;;;;;;;;;;;;-3.64;57.02;99388.55;1778675;80;20159;-70
2021/03/12 02:38:23;;;;;;;;;;;;;;;-3.65;57.07;99349.38;1764697;80;20142;-70
2021/03/12 02:40:52;;;;;;;;;;;;;;;-3.67;57.13;99355.91;1775491;80;20128;-69
2021/03/12 02:43:21;;;;;;;;;;;;;;;-3.71;57.24;99365.99;1770826;80;20481;-69
2021/03/12 02:45:49;;;;;;;;;;;;;;;-3.73;57.14;99397.06;1789839;80;20147;-70
2021/03/12 02:48:19;;;;;;;;;;;;;;;-3.75;57.22;99366.58;1781793;80;20171;-70
2021/03/12 02:50:47;;;;;;;;;;;;;;;-3.76;57.21;99371.80;1781549;80;20123;-70
2021/03/12 02:53:16;;;;;;;;;;;;;;;-3.77;57.22;99364.97;1725716;81;20232;-70
2021/03/12 02:55:45;;;;;;;;;;;;;;;-3.82;57.38;99380.66;1771611;80;20234;-70
2021/03/12 02:58:14;;;;;;;;;;;;;;;-3.83;57.49;99344.11;1754940;80;20414;-70
2021/03/12 03:00:42;;;;;;;;;;;;;;;-3.83;57.58;99346.69;1756141;80;20124;-69
2021/03/12 03:03:12;;;;;;;;;;;;;;;-3.84;57.55;99335.12;1773950;80;20151;-69
2021/03/12 03:05:41;;;;;;;;;;;;;;;-3.84;57.54;99337.70;1728704;80;20426;-69
2021/03/12 03:08:11;;;;;;;;;;;;;;;-3.87;57.52;99336.53;1747578;80;20241;-69
2021/03/12 03:10:39;;;;;;;;;;;;;;;-3.89;57.22;99345.64;1781275;80;20127;-70
2021/03/12 03:13:07;;;;;;;;;;;;;;;-3.92;57.43;99344.03;1778393;80;20150;-70
2021/03/12 03:15:35;;;;;;;;;;;;;;;-3.93;57.49;99329.88;1786934;80;20143;-70
2021/03/12 03:18:05;;;;;;;;;;;;;;;-3.94;57.52;99336.81;1778024;80;20227;-71
2021/03/12 03:20:35;;;;;;;;;;;;;;;-3.94;57.42;99329.52;1788249;79;20308;-71
2021/03/12 03:23:03;;;;;;;;;;;;;;;-3.92;57.38;99342.75;1754615;81;20180;-71
2021/03/12 03:25:32;;;;;;;;;;;;;;;-3.94;57.23;99318.72;1785236;80;20139;-71
2021/03/12 03:28:04;;;;;;;;;;;;;;;-3.95;57.33;99315.73;1778304;80;20131;-71
2021/03/12 03:30:31;;;;;;;;;;;;;;;-3.94;57.27;99315.30;1755753;81;20184;-71
2021/03/12 03:33:04;;;;;;;;;;;;;;;-3.94;57.33;99328.22;1769937;80;20257;-71
2021/03/12 03:35:32;;;;;;;;;;;;;;;-3.96;57.18;99333.91;1785224;80;20151;-71
2021/03/12 03:38:00;;;;;;;;;;;;;;;-3.98;57.12;99318.93;1785297;80;20151;-70
2021/03/12 03:40:28;;;;;;;;;;;;;;;-4.00;57.29;99310.38;1786757;80;20190;-70
2021/03/12 03:42:57;;;;;;;;;;;;;;;-4.04;57.10;99313.58;1748763;80;20231;-70
2021/03/12 03:45:27;;;;;;;;;;;;;;;-4.05;57.23;99314.92;1753913;80;20176;-70
2021/03/12 03:47:57;;;;;;;;;;;;;;;-4.08;57.09;99296.96;1779630;80;20520;-69
2021/03/12 03:50:25;;;;;;;;;;;;;;;-4.10;57.15;99295.30;1756372;80;20243;-70
2021/03/12 03:52:53;;;;;;;;;;;;;;;-4.12;57.21;99275.13;1776013;80;20143;-70
2021/03/12 03:55:23;;;;;;;;;;;;;;;-4.14;57.10;99287.73;1778473;80;20135;-70
2021/03/12 03:57:51;;;;;;;;;;;;;;;-4.17;57.14;99278.38;1778499;80;20230;-70
2021/03/12 04:00:20;;;;;;;;;;;;;;;-4.18;57.22;99285.73;1775960;80;20458;-70
2021/03/12 04:02:49;;;;;;;;;;;;;;;-4.18;57.32;99298.64;1774036;80;20195;-70
2021/03/12 04:05:18;;;;;;;;;;;;;;;-4.21;57.32;99285.84;1776411;80;20154;-70
2021/03/12 04:07:48;;;;;;;;;;;;;;;-4.20;57.29;99290.58;1773929;80;20230;-70
2021/03/12 04:10:15;;;;;;;;;;;;;;;-4.21;57.20;99292.77;1776054;80;20427;-70
2021/03/12 04:12:44;;;;;;;;;;;;;;;-4.22;57.33;99302.27;1775890;80;20175;-70
2021/03/12 04:15:14;;;;;;;;;;;;;;;-4.20;57.39;99284.13;1754603;80;20167;-70
2021/03/12 04:17:42;;;;;;;;;;;;;;;-4.19;57.25;99294.83;1788699;80;20159;-70
2021/03/12 04:20:11;;;;;;;;;;;;;;;-4.19;57.09;99317.64;1781540;80;20418;-70
2021/03/12 04:22:38;;;;;;;;;;;;;;;-4.18;56.99;99318.47;1791802;80;20234;-70
2021/03/12 04:25:07;;;;;;;;;;;;;;;-4.19;57.13;99316.78;1775726;80;20123;-70
2021/03/12 04:27:36;;;;;;;;;;;;;;;-4.18;57.25;99319.30;1751817;81;20243;-70
2021/03/12 04:30:05;;;;;;;;;;;;;;;-4.17;57.21;99283.55;1788099;80;20147;-70
2021/03/12 04:32:35;;;;;;;;;;;;;;;-4.16;57.24;99285.20;1794820;80;20551;-70
2021/03/12 04:35:04;;;;;;;;;;;;;;;-4.18;57.13;99283.61;1758137;80;20231;-70
2021/03/12 04:37:31;;;;;;;;;;;;;;;-4.19;57.26;99280.19;1775860;79;20249;-70
2021/03/12 04:39:59;;;;;;;;;;;;;;;-4.18;57.25;99295.23;1754397;80;20250;-70
2021/03/12 04:42:28;;;;;;;;;;;;;;;-4.16;57.20;99296.00;1732703;81;20207;-71
2021/03/12 04:44:58;;;;;;;;;;;;;;;-4.13;57.09;99319.95;1779001;80;20466;-70
2021/03/12 04:47:27;;;;;;;;;;;;;;;-4.12;56.99;99309.16;1756110;80;20143;-70
2021/03/12 04:49:56;;;;;;;;;;;;;;;-4.13;56.91;99309.63;1775480;80;20139;-70
2021/03/12 04:52:24;;;;;;;;;;;;;;;-4.13;57.18;99307.50;1775873;80;20166;-71
2021/03/12 04:54:52;;;;;;;;;;;;;;;-4.15;57.18;99311.86;1754079;80;20151;-70
2021/03/12 04:57:23;;;;;;;;;;;;;;;-4.16;57.15;99337.33;1787185;80;20147;-70
2021/03/12 04:59:50;;;;;;;;;;;;;;;-4.18;57.36;99329.63;1787967;80;20227;-70
2021/03/12 05:02:19;;;;;;;;;;;;;;;-4.18;57.13;99309.44;1778630;80;20134;-70
2021/03/12 05:04:49;;;;;;;;;;;;;;;-4.18;57.32;99314.14;1754157;80;20155;-71
2021/03/12 05:07:21;;;;;;;;;;;;;;;-4.18;57.26;99301.22;1753112;80;20155;-72
2021/03/12 05:09:51;;;;;;;;;;;;;;;-4.18;57.30;99333.97;1788092;79;20163;-71
2021/03/12 05:12:19;;;;;;;;;;;;;;;-4.20;57.42;99295.28;1778185;80;20150;-71
2021/03/12 05:14:47;;;;;;;;;;;;;;;-4.19;57.48;99312.47;1781091;80;20210;-70
2021/03/12 05:17:15;;;;;;;;;;;;;;;-4.18;57.41;99321.88;1784958;80;20147;-71
2021/03/12 05:19:44;;;;;;;;;;;;;;;-4.19;57.49;99315.05;1778523;80;20175;-72
2021/03/12 05:22:11;;;;;;;;;;;;;;;-4.17;57.54;99326.59;1777358;80;20150;-72
2021/03/12 05:24:39;;;;;;;;;;;;;;;-4.18;57.62;99327.52;1782737;80;20273;-71
2021/03/12 05:27:07;;;;;;;;;;;;;;;-4.17;57.59;99331.75;1779792;80;20231;-72
2021/03/12 05:29:37;;;;;;;;;;;;;;;-4.18;57.73;99299.93;1777780;79;20143;-72
2021/03/12 05:32:05;;;;;;;;;;;;;;;-4.17;57.66;99293.88;1784132;80;20557;-72
2021/03/12 05:34:35;;;;;;;;;;;;;;;-4.18;57.69;99292.19;1776016;80;20134;-71
2021/03/12 05:37:04;;;;;;;;;;;;;;;-4.20;57.72;99314.66;1781097;80;20159;-72
2021/03/12 05:39:33;;;;;;;;;;;;;;;-4.20;57.78;99295.28;1753536;80;20160;-71
2021/03/12 05:42:01;;;;;;;;;;;;;;;-4.19;57.86;99293.11;1752125;80;20238;-71
2021/03/12 05:44:31;;;;;;;;;;;;;;;-4.18;57.92;99278.44;1774928;80;20119;-70
2021/03/12 05:47:00;;;;;;;;;;;;;;;-4.18;58.04;99279.27;1758679;80;20143;-71
2021/03/12 05:49:28;;;;;;;;;;;;;;;-4.13;57.80;99291.55;1785690;79;20155;-71
2021/03/12 05:51:56;;;;;;;;;;;;;;;-4.12;57.63;99278.17;1770130;79;20481;-72
2021/03/12 05:54:23;;;;;;;;;;;;;;;-4.08;57.62;99280.17;1775551;79;20134;-71
2021/03/12 05:56:52;;;;;;;;;;;;;;;-4.05;57.56;99292.97;1800955;79;20210;-68
2021/03/12 05:59:20;;;;;;;;;;;;;;;-4.00;57.43;99289.28;1720233;80;20470;-71
2021/03/12 06:01:49;;;;;;;;;;;;;;;-3.92;57.25;99276.03;1741498;81;20230;-72
2021/03/12 06:04:17;;;;;;;;;;;;;;;-3.90;57.10;99285.84;1731996;81;20137;-72
2021/03/12 06:06:44;;;;;;;;;;;;;;;-3.86;56.97;99283.50;1777724;80;20143;-72
2021/03/12 06:09:13;;;;;;;;;;;;;;;-3.80;56.81;99315.99;1762890;80;20234;-72
2021/03/12 06:11:41;;;;;;;;;;;;;;;-3.76;56.51;99264.55;1759176;80;20142;-72
2021/03/12 06:14:08;;;;;;;;;;;;;;;-3.74;56.35;99270.06;1770995;80;20183;-73
2021/03/12 06:16:38;;;;;;;;;;;;;;;-3.74;56.27;99257.56;1804138;78;20145;-72
2021/03/12 06:19:17;;;;;;;;;;;;;;;-3.71;56.10;99249.23;1778694;79;20213;-71
2021/03/12 06:21:48;;;;;;;;;;;;;;;-3.70;55.82;99244.92;1797820;79;20140;-74
2021/03/12 06:24:29;;;;;;;;;;;;;;;-3.65;55.84;99261.03;1797283;79;20236;-73
2021/03/12 06:27:24;;;;;;;;;;;;;;;-3.57;55.78;99248.63;1793166;79;20133;-73
2021/03/12 06:29:59;;;;;;;;;;;;;;;-3.44;55.34;99236.41;1798094;78;20497;-72
2021/03/12 06:32:46;;;;;;;;;;;;;;;-3.29;54.80;99224.09;1776142;79;20237;-74
2021/03/12 06:35:37;;;;;;;;;;;;;;;-3.15;54.33;99248.83;1793297;79;20153;-74
2021/03/12 06:38:20;;;;;;;;;;;;;;;-2.90;53.30;99222.24;1778081;79;20261;-74
2021/03/12 06:40:50;;;;;;;;;;;;;;;-2.85;53.04;99217.69;1796147;79;20141;-73
2021/03/12 06:43:25;;;;;;;;;;;;;;;-2.84;53.02;99207.70;1796852;79;20172;-74
2021/03/12 06:45:57;;;;;;;;;;;;;;;-2.82;52.45;99262.84;1797680;79;20492;-72
2021/03/12 06:48:32;;;;;;;;;;;;;;;-2.93;52.01;99240.89;1796767;79;20291;-73
2021/03/12 06:51:10;;;;;;;;;;;;;;;-2.97;52.36;99213.95;1798203;79;20506;-75
2021/03/12 06:53:39;;;;;;;;;;;;;;;-2.97;52.43;99215.25;1770681;80;20196;-71
2021/03/12 06:56:09;;;;;;;;;;;;;;;-2.89;52.38;99258.41;1797295;79;20227;-80
2021/03/12 06:58:39;;;;;;;;;;;;;;;-2.80;51.94;99246.78;1802577;79;20498;-72
2021/03/12 07:01:19;;;;;;;;;;;;;;;-2.77;51.81;99219.44;1804995;79;20226;-75
2021/03/12 07:04:09;;;;;;;;;;;;;;;-2.79;51.82;99201.85;1792783;79;20337;-75
2021/03/12 07:06:47;;;;;;;;;;;;;;;-2.74;51.89;99202.47;1797997;79;20143;-73
2021/03/12 07:09:17;;;;;;;;;;;;;;;-2.61;51.57;99228.59;1757862;80;20233;-75
2021/03/12 07:11:58;;;;;;;;;;;;;;;-2.55;51.25;99208.40;1805133;79;20229;-74
2021/03/12 07:14:37;;;;;;;;;;;;;;;-2.51;51.15;99210.84;1745323;80;20125;-75
2021/03/12 07:17:10;;;;;;;;;;;;;;;-2.55;51.24;99202.39;1797972;79;20192;-74
2021/03/12 07:19:38;;;;;;;;;;;;;;;-2.59;51.25;99212.06;1795080;79;20158;-73
2021/03/12 07:22:10;;;;;;;;;;;;;;;-2.63;51.26;99181.23;1793589;78;20216;-74
2021/03/12 07:24:40;;;;;;;;;;;;;;;-2.64;51.13;99184.72;1793538;79;20477;-73
2021/03/12 07:27:08;;;;;;;;;;;;;;;-2.67;51.29;99153.83;1747281;80;20238;-75
2021/03/12 07:29:38;;;;;;;;;;;;;;;-2.69;51.39;99166.84;1736402;80;20325;-72
2021/03/12 07:32:10;;;;;;;;;;;;;;;-2.68;51.78;99152.97;1752160;81;20127;-79
2021/03/12 07:34:39;;;;;;;;;;;;;;;-2.63;51.63;99162.65;1777682;80;20139;-73
2021/03/12 07:37:10;;;;;;;;;;;;;;;-2.58;51.27;99167.14;1787182;80;20139;-80
2021/03/12 07:39:44;;;;;;;;;;;;;;;-2.55;50.96;99183.80;1753858;80;20490;-74
2021/03/12 07:42:18;;;;;;;;;;;;;;;-2.63;51.05;99199.36;1758664;81;20173;-75
2021/03/12 07:44:59;;;;;;;;;;;;;;;-2.72;51.42;99181.23;1751432;81;20130;-76
2021/03/12 07:47:36;;;;;;;;;;;;;;;-2.77;51.42;99183.20;1741914;79;20242;-76
2021/03/12 07:50:14;;;;;;;;;;;;;;;-2.83;51.64;99173.98;1784487;79;20133;-72
2021/03/12 07:52:50;;;;;;;;;;;;;;;-2.89;51.99;99169.13;1743151;80;20173;-74
2021/03/12 07:55:40;;;;;;;;;;;;;;;-2.98;52.15;99152.75;1791861;80;20202;-75
2021/03/12 07:58:14;;;;;;;;;;;;;;;-3.04;52.52;99156.48;1790677;79;20337;-80
2021/03/12 08:01:02;;;;;;;;;;;;;;;-3.08;52.88;99129.55;1779957;79;20392;-79
2021/03/12 08:03:35;;;;;;;;;;;;;;;-3.09;52.89;99131.28;1797139;79;20149;-76
2021/03/12 08:06:16;;;;;;;;;;;;;;;-3.09;52.95;99140.34;1753719;80;20465;-79
2021/03/12 08:08:54;;;;;;;;;;;;;;;-3.04;52.99;99138.38;1749363;80;20215;-76
2021/03/12 08:11:42;;;;;;;;;;;;;;;-3.02;53.07;99157.70;1667587;83;20243;-76
2021/03/12 08:14:48;;;;;;;;;;;;;;;-2.95;53.24;99148.73;1904738;74;20290;-74
2021/03/12 08:17:18;;;;;;;;;;;;;;;-2.99;53.32;99154.52;1842824;76;20215;-73
2021/03/12 08:19:56;;;;;;;;;;;;;;;-2.96;53.40;99172.45;1853920;76;20188;-74
2021/03/12 08:22:32;;;;;;;;;;;;;;;-2.95;53.47;99157.33;1877171;76;20412;-74
2021/03/12 08:25:09;;;;;;;;;;;;;;;-2.91;53.54;99144.25;1879997;76;20188;-76
2021/03/12 08:27:44;;;;;;;;;;;;;;;-2.86;53.65;99152.59;1881761;76;20168;-75
2021/03/12 08:30:29;;;;;;;;;;;;;;;-2.79;53.61;99129.38;1799228;78;20172;-78
2021/03/12 08:32:58;;;;;;;;;;;;;;;-2.76;53.57;99131.83;1765366;80;20231;-75
2021/03/12 08:35:41;;;;;;;;;;;;;;;-2.74;53.55;99131.29;1736967;80;20175;-74
2021/03/12 08:38:28;;;;;;;;;;;;;;;-2.71;53.76;99132.44;1775192;79;20178;-75
2021/03/12 08:41:01;;;;;;;;;;;;;;;-2.62;53.76;99142.33;1773544;80;20138;-77
2021/03/12 08:43:34;;;;;;;;;;;;;;;-2.57;53.63;99126.55;1752190;80;20293;-78
2021/03/12 08:46:17;;;;;;;;;;;;;;;-2.55;53.50;99177.33;1764442;80;20206;-72
2021/03/12 08:48:47;;;;;;;;;;;;;;;-2.56;53.53;99113.53;1745628;80;20294;-78
2021/03/12 08:51:24;;;;;;;;;;;;;;;-2.51;53.46;99120.22;1782640;80;20183;-77
2021/03/12 08:53:55;;;;;;;;;;;;;;;-2.50;53.54;99092.13;1750583;80;20314;-77
2021/03/12 08:56:28;;;;;;;;;;;;;;;-2.45;53.58;99109.09;1780072;79;20214;-77
2021/03/12 08:58:56;;;;;;;;;;;;;;;-2.42;53.39;99106.79;1776819;79;20911;-74
2021/03/12 09:01:27;;;;;;;;;;;;;;;-2.44;53.46;99068.48;1762661;80;20144;-76
2021/03/12 09:03:59;;;;;;;;;;;;;;;-2.47;53.65;99133.38;1775515;80;20202;-79
2021/03/12 09:06:31;;;;;;;;;;;;;;;-2.52;53.77;99077.09;1736589;80;20207;-76
2021/03/12 09:09:11;;;;;;;;;;;;;;;-2.49;53.90;99095.08;1751570;80;20127;-77
2021/03/12 09:11:44;;;;;;;;;;;;;;;-2.45;53.84;99100.47;1809675;78;20187;-77
2021/03/12 09:14:11;;;;;;;;;;;;;;;-2.46;53.84;99077.63;1768081;80;20160;-77
2021/03/12 09:16:40;;;;;;;;;;;;;;;-2.49;54.01;99102.37;1815869;78;20283;-76
2021/03/12 09:19:13;;;;;;;;;;;;;;;-2.56;54.34;99080.34;1783073;80;20161;-78
2021/03/12 09:21:42;;;;;;;;;;;;;;;-2.61;54.55;99074.55;1777304;79;20197;-75
2021/03/12 09:24:11;;;;;;;;;;;;;;;-2.62;54.72;99064.66;1764897;79;20312;-75
2021/03/12 09:26:41;;;;;;;;;;;;;;;-2.64;55.03;99059.99;1793124;79;20138;-74
2021/03/12 09:29:16;;;;;;;;;;;;;;;-2.63;55.06;99064.27;1791271;79;20424;-72
2021/03/12 09:31:44;;;;;;;;;;;;;;;-2.62;55.52;99056.89;1754376;81;21306;-72
2021/03/12 09:34:15;;;;;;;;;;;;;;;-2.60;55.82;99051.17;1779542;79;20176;-73
2021/03/12 09:36:51;;;;;;;;;;;;;;;-2.57;55.71;99058.77;1788189;79;20234;-74
2021/03/12 09:39:30;;;;;;;;;;;;;;;-2.54;55.72;99048.72;1717451;83;20227;-74
2021/03/12 09:42:03;;;;;;;;;;;;;;;-2.56;55.85;99083.75;1774703;80;20203;-74
2021/03/12 09:44:32;;;;;;;;;;;;;;;-2.55;55.89;99047.03;1769290;79;20232;-74
2021/03/12 09:47:06;;;;;;;;;;;;;;;-2.55;56.01;99077.64;1789036;78;20622;-75
2021/03/12 09:49:38;;;;;;;;;;;;;;;-2.51;55.98;99025.70;1737378;81;20256;-74
2021/03/12 09:52:09;;;;;;;;;;;;;;;-2.52;56.23;99046.02;1711416;81;20184;-74
2021/03/12 09:54:38;;;;;;;;;;;;;;;-2.52;56.59;99043.44;1770779;80;20192;-73
2021/03/12 09:57:11;;;;;;;;;;;;;;;-2.54;56.87;99032.72;1707274;80;20510;-74
2021/03/12 09:59:39;;;;;;;;;;;;;;;-2.53;57.43;99037.43;1720973;80;20576;-73
2021/03/12 10:02:16;;;;;;;;;;;;;;;-2.58;58.48;99038.98;1708911;81;20283;-72
2021/03/12 10:04:55;;;;;;;;;;;;;;;-2.62;57.92;99036.19;1773448;80;20167;-75
2021/03/12 10:07:37;;;;;;;;;;;;;;;-2.60;57.72;99038.66;1772542;79;20230;-70
2021/03/12 10:10:17;;;;;;;;;;;;;;;-2.56;57.65;99035.02;1801329;78;20491;-72
2021/03/12 10:12:50;;;;;;;;;;;;;;;-2.49;57.91;99036.81;1729697;80;20214;-70
2021/03/12 10:15:22;;;;;;;;;;;;;;;-2.44;58.76;99025.29;1758252;80;20219;-72
2021/03/12 10:17:55;;;;;;;;;;;;;;;-2.44;60.58;99030.47;1755633;80;20513;-70
2021/03/12 10:20:29;;;;;;;;;;;;;;;-2.48;62.07;99020.38;1712972;81;20204;-73
2021/03/12 10:23:05;;;;;;;;;;;;;;;-2.52;64.04;99026.61;1762108;80;20697;-71
2021/03/12 10:25:45;;;;;;;;;;;;;;;-2.58;65.26;99039.42;1751826;79;20189;-71
2021/03/12 10:28:16;;;;;;;;;;;;;;;-2.63;67.50;99022.02;1753666;81;20205;-70
2021/03/12 10:30:47;;;;;;;;;;;;;;;-2.69;68.90;99030.94;1740856;80;20372;-71
2021/03/12 10:33:19;;;;;;;;;;;;;;;-2.75;70.26;99030.80;1790146;79;20410;-70
2021/03/12 10:35:52;;;;;;;;;;;;;;;-2.75;71.26;99024.77;1773385;80;20322;-73
2021/03/12 10:38:25;;;;;;;;;;;;;;;-2.77;73.05;99021.43;1793234;79;20198;-71
2021/03/12 10:41:03;;;;;;;;;;;;;;;-2.78;74.50;99010.72;1776716;79;20190;-70
2021/03/12 10:43:34;;;;;;;;;;;;;;;-2.83;76.35;99017.41;1745178;80;20144;-74
2021/03/12 10:46:09;;;;;;;;;;;;;;;-2.86;79.29;99007.23;1776442;80;20179;-72
2021/03/12 10:48:45;;;;;;;;;;;;;;;-2.89;80.63;99003.97;1780066;80;20190;-72
2021/03/12 10:51:16;;;;;;;;;;;;;;;-2.90;81.23;99008.75;1765703;79;20200;-72
2021/03/12 10:53:49;;;;;;;;;;;;;;;-2.89;82.09;99006.09;1785447;79;20154;-69
2021/03/12 10:56:17;;;;;;;;;;;;;;;-2.87;81.98;98995.20;1802990;78;20184;-70
2021/03/12 10:58:45;;;;;;;;;;;;;;;-2.84;81.71;98999.37;1817533;78;20194;-71
2021/03/12 11:01:19;;;;;;;;;;;;;;;-2.81;82.55;99003.10;1760093;80;20178;-71
2021/03/12 11:03:47;;;;;;;;;;;;;;;-2.78;83.60;99021.89;1761200;80;20540;-76
2021/03/12 11:06:18;;;;;;;;;;;;;;;-2.75;82.92;99004.92;1788995;78;20236;-76
2021/03/12 11:08:46;;;;;;;;;;;;;;;-2.75;83.43;99006.22;1772547;80;20194;-76
2021/03/12 11:11:19;;;;;;;;;;;;;;;-2.71;84.17;99003.02;1767145;80;20226;-75
2021/03/12 11:13:48;;;;;;;;;;;;;;;-2.73;85.41;99002.26;1762998;80;20202;-75
2021/03/12 11:16:16;;;;;;;;;;;;;;;-2.72;85.85;98987.09;1780003;80;20426;-76
2021/03/12 11:18:47;;;;;;;;;;;;;;;-2.72;86.15;98978.50;1826230;78;20264;-72
2021/03/12 11:21:16;;;;;;;;;;;;;;;-2.72;86.88;99006.97;1821775;78;20852;-73
2021/03/12 11:23:45;;;;;;;;;;;;;;;-2.74;88.22;98983.75;1805905;78;20204;-74
2021/03/12 11:26:14;;;;;;;;;;;;;;;-2.74;88.34;98983.28;1797637;78;20121;-78
2021/03/12 11:28:42;;;;;;;;;;;;;;;-2.72;88.83;98984.50;1817581;78;20160;-77
2021/03/12 11:31:13;;;;;;;;;;;;;;;-2.69;88.45;98981.77;1826181;79;20141;-75
2021/03/12 11:33:41;;;;;;;;;;;;;;;-2.65;87.22;99000.09;1827276;79;20141;-76
2021/03/12 11:36:10;;;;;;;;;;;;;;;-2.64;87.46;98990.09;1822978;78;20267;-77
2021/03/12 11:38:39;;;;;;;;;;;;;;;-2.63;87.94;98990.48;1815655;78;20160;-76
2021/03/12 11:41:06;;;;;;;;;;;;;;;-2.62;88.07;98986.14;1820993;78;20204;-76
2021/03/12 11:43:34;;;;;;;;;;;;;;;-2.59;88.21;98965.27;1797621;78;20162;-78
2021/03/12 11:46:02;;;;;;;;;;;;;;;-2.58;87.77;98960.02;1812946;78;20487;-76
2021/03/12 11:48:30;;;;;;;;;;;;;;;-2.52;87.64;98958.84;1819401;78;20137;-77
2021/03/12 11:50:58;;;;;;;;;;;;;;;-2.52;89.64;98946.34;1806501;78;20164;-76
2021/03/12 11:53:25;;;;;;;;;;;;;;;-2.51;91.51;98938.96;1819803;78;20388;-78
2021/03/12 11:55:53;;;;;;;;;;;;;;;-2.50;91.20;98934.17;1811411;78;20156;-77
2021/03/12 11:58:20;;;;;;;;;;;;;;;-2.51;90.64;98937.20;1803168;78;20145;-75
2021/03/12 12:00:49;;;;;;;;;;;;;;;-2.51;89.97;98928.61;1815877;78;20448;-76
2021/03/12 12:03:17;;;;;;;;;;;;;;;-2.52;89.95;98924.33;1820276;78;20129;-75
2021/03/12 12:05:46;;;;;;;;;;;;;;;-2.55;89.71;98918.41;1810300;78;20152;-77
2021/03/12 12:08:14;;;;;;;;;;;;;;;-2.59;89.39;98928.56;1780259;78;20445;-77
2021/03/12 12:10:43;;;;;;;;;;;;;;;-2.59;91.75;98918.20;1816318;78;20141;-78
2021/03/12 12:13:12;;;;;;;;;;;;;;;-2.59;91.48;98920.80;1786365;79;20236;-77
2021/03/12 12:15:40;;;;;;;;;;;;;;;-2.61;93.72;98914.87;1818766;78;20279;-78
2021/03/12 12:18:10;;;;;;;;;;;;;;;-2.61;93.37;98899.33;1786838;78;20264;-78
2021/03/12 12:20:43;;;;;;;;;;;;;;;-2.61;94.33;98903.69;1819118;78;20137;-79
2021/03/12 12:23:07;;;;;;;;;;;;;;;-2.59;94.62;98885.84;1808489;78;20176;-78
2021/03/12 12:25:34;;;;;;;;;;;;;;;-2.55;94.53;98892.52;1797667;78;20129;-77
2021/03/12 12:28:06;;;;;;;;;;;;;;;-2.51;93.66;98891.89;1821743;78;20145;-81
2021/03/12 12:30:35;;;;;;;;;;;;;;;-2.50;92.96;98881.09;1802285;78;20204;-79
2021/03/12 12:33:04;;;;;;;;;;;;;;;-2.48;93.65;98882.66;1811634;78;20404;-78
2021/03/12 12:35:32;;;;;;;;;;;;;;;-2.47;92.98;98873.13;1789140;79;20153;-79
2021/03/12 12:38:00;;;;;;;;;;;;;;;-2.46;92.23;98879.53;1818482;78;20266;-80
2021/03/12 12:40:28;;;;;;;;;;;;;;;-2.42;91.37;98889.26;1783443;79;20160;-79
2021/03/12 12:42:55;;;;;;;;;;;;;;;-2.42;90.49;98907.38;1812876;78;20125;-77
2021/03/12 12:45:23;;;;;;;;;;;;;;;-2.37;90.11;98885.96;1810670;78;20232;-79
2021/03/12 12:47:50;;;;;;;;;;;;;;;-2.31;89.57;98849.34;1817025;78;20161;-77
2021/03/12 12:50:18;;;;;;;;;;;;;;;-2.25;88.54;98870.17;1772967;78;20237;-78
2021/03/12 12:52:45;;;;;;;;;;;;;;;-2.25;88.33;98861.11;1817322;78;20176;-79
2021/03/12 12:55:14;;;;;;;;;;;;;;;-2.24;87.79;98855.02;1826028;78;20156;-78
2021/03/12 12:57:41;;;;;;;;;;;;;;;-2.27;88.61;98868.96;1816124;78;20133;-79
2021/03/12 13:00:10;;;;;;;;;;;;;;;-2.28;88.94;98885.44;1807252;78;20152;-77
2021/03/12 13:02:39;;;;;;;;;;;;;;;-2.29;89.10;98872.58;1822044;78;20392;-78
2021/03/12 13:05:08;;;;;;;;;;;;;;;-2.30;89.94;98863.98;1811277;78;20397;-78
2021/03/12 13:07:36;;;;;;;;;;;;;;;-2.28;90.45;98859.98;1825917;79;20145;-77